N34WC LTAI-URSS
Flight info
| Callsign | N34WC |
|---|---|
| Flight time | 0h 34m |
| Altitude | 40000 |
| Route | EKSEN UA16 KFK/N0478F390 UR32 HALIL/N0479F400 UW77 BAG/N0479F390 UW71 CRM UG901 BALUM/K0891F390 G901 KEPOL G487 DIRUN DIRUN1K |
| Aircraft | A343/H-SDE2E3FGHIJ4J5M1RWXY/LB1D1 |
Departure
| Time | 2026-05-05 10:32 |
|---|---|
| Airport | Antalya International Airport (LTAI) |
Arrival
| Time | 2026-05-05 11:06 |
|---|---|
| Airport | Sochi International Airport (URSS) |
| Time | Latitude | Longitude | Altitude | Speed | Heading |
|---|---|---|---|---|---|
| 2026-05-05 10:10 | 36.89558 | 30.79996 | 186 ft | 0 kts | 182° |
| 2026-05-05 10:19 | 36.89563 | 30.79997 | 202 ft | 2 kts | 173° |
| 2026-05-05 10:19 | 36.89582 | 30.79996 | 193 ft | 3 kts | 179° |
| 2026-05-05 10:19 | 36.89602 | 30.79995 | 202 ft | 3 kts | 150° |
| 2026-05-05 10:19 | 36.89617 | 30.79978 | 202 ft | 3 kts | 104° |
| 2026-05-05 10:20 | 36.89619 | 30.79964 | 202 ft | 0 kts | 88° |
| 2026-05-05 10:20 | 36.89619 | 30.79943 | 199 ft | 0 kts | 95° |
| 2026-05-05 10:20 | 36.89619 | 30.79935 | 202 ft | 0 kts | 95° |
| 2026-05-05 10:23 | 36.89619 | 30.79937 | 202 ft | 0 kts | 95° |
| 2026-05-05 10:23 | 36.89619 | 30.79941 | 199 ft | 1 kts | 95° |
| 2026-05-05 10:23 | 36.89618 | 30.79954 | 186 ft | 2 kts | 96° |
| 2026-05-05 10:23 | 36.89616 | 30.79976 | 189 ft | 3 kts | 96° |
| 2026-05-05 10:24 | 36.89615 | 30.79991 | 188 ft | 0 kts | 96° |
| 2026-05-05 10:26 | 36.89615 | 30.79992 | 188 ft | 1 kts | 96° |
| 2026-05-05 10:26 | 36.89613 | 30.80013 | 194 ft | 4 kts | 94° |
| 2026-05-05 10:26 | 36.89610 | 30.80061 | 191 ft | 7 kts | 94° |
| 2026-05-05 10:26 | 36.89606 | 30.80136 | 198 ft | 10 kts | 94° |
| 2026-05-05 10:27 | 36.89599 | 30.80234 | 192 ft | 12 kts | 98° |
| 2026-05-05 10:27 | 36.89587 | 30.80351 | 195 ft | 15 kts | 97° |
| 2026-05-05 10:27 | 36.89576 | 30.80493 | 184 ft | 18 kts | 95° |
| 2026-05-05 10:27 | 36.89559 | 30.80639 | 190 ft | 15 kts | 108° |
| 2026-05-05 10:28 | 36.89483 | 30.80672 | 191 ft | 13 kts | 182° |
| 2026-05-05 10:28 | 36.89384 | 30.80662 | 191 ft | 16 kts | 186° |
| 2026-05-05 10:28 | 36.89264 | 30.80644 | 184 ft | 19 kts | 187° |
| 2026-05-05 10:28 | 36.89125 | 30.80627 | 183 ft | 22 kts | 185° |
| 2026-05-05 10:29 | 36.88967 | 30.80606 | 182 ft | 24 kts | 186° |
| 2026-05-05 10:29 | 36.88792 | 30.80580 | 182 ft | 27 kts | 187° |
| 2026-05-05 10:29 | 36.88600 | 30.80553 | 180 ft | 29 kts | 186° |
| 2026-05-05 10:29 | 36.88392 | 30.80525 | 179 ft | 31 kts | 186° |
| 2026-05-05 10:30 | 36.88174 | 30.80497 | 178 ft | 29 kts | 177° |
| 2026-05-05 10:30 | 36.88133 | 30.80519 | 177 ft | 2 kts | 137° |
| 2026-05-05 10:30 | 36.88119 | 30.80547 | 177 ft | 5 kts | 110° |
| 2026-05-05 10:30 | 36.88110 | 30.80608 | 176 ft | 9 kts | 99° |
| 2026-05-05 10:31 | 36.88113 | 30.80697 | 176 ft | 9 kts | 60° |
| 2026-05-05 10:31 | 36.88156 | 30.80722 | 176 ft | 7 kts | 10° |
| 2026-05-05 10:31 | 36.88288 | 30.80746 | 177 ft | 54 kts | 7° |
| 2026-05-05 10:31 | 36.88997 | 30.80841 | 183 ft | 146 kts | 5° |
| 2026-05-05 10:32 | 36.90234 | 30.81018 | 413 ft | 205 kts | 4° |
| 2026-05-05 10:32 | 36.91844 | 30.81316 | 927 ft | 262 kts | 8° |
| 2026-05-05 10:32 | 36.93682 | 30.81908 | 2194 ft | 281 kts | 17° |
| 2026-05-05 10:32 | 36.95449 | 30.82811 | 3801 ft | 273 kts | 23° |
| 2026-05-05 10:33 | 36.97142 | 30.83797 | 5445 ft | 263 kts | 22° |
| 2026-05-05 10:33 | 36.98781 | 30.84697 | 7053 ft | 250 kts | 21° |
| 2026-05-05 10:33 | 37.00408 | 30.85550 | 8347 ft | 254 kts | 20° |
| 2026-05-05 10:33 | 37.02081 | 30.86407 | 9276 ft | 267 kts | 20° |
| 2026-05-05 10:34 | 37.03835 | 30.87287 | 9829 ft | 274 kts | 21° |
| 2026-05-05 10:34 | 37.05593 | 30.88157 | 9976 ft | 274 kts | 20° |
| 2026-05-05 10:34 | 37.07465 | 30.88755 | 9986 ft | 276 kts | 4° |
| 2026-05-05 10:34 | 37.09382 | 30.88567 | 9991 ft | 279 kts | 351° |
| 2026-05-05 10:35 | 37.11286 | 30.88098 | 9985 ft | 278 kts | 349° |
| 2026-05-05 10:35 | 37.13156 | 30.87608 | 9987 ft | 278 kts | 349° |
| 2026-05-05 10:35 | 37.15048 | 30.87118 | 9985 ft | 278 kts | 349° |
| 2026-05-05 10:35 | 37.16963 | 30.86628 | 9987 ft | 278 kts | 349° |
| 2026-05-05 10:36 | 37.18853 | 30.86149 | 9979 ft | 277 kts | 349° |
| 2026-05-05 10:36 | 37.25639 | 30.84438 | 9988 ft | 276 kts | 349° |
| 2026-05-05 10:36 | 37.33194 | 30.82535 | 9984 ft | 275 kts | 350° |
| 2026-05-05 10:36 | 37.40686 | 30.80638 | 9981 ft | 275 kts | 349° |
| 2026-05-05 10:37 | 37.48299 | 30.80370 | 9995 ft | 274 kts | 2° |
| 2026-05-05 10:37 | 37.56499 | 30.80740 | 11204 ft | 333 kts | 2° |
| 2026-05-05 10:37 | 37.66181 | 30.81178 | 14772 ft | 355 kts | 1° |
| 2026-05-05 10:37 | 37.76117 | 30.81059 | 18585 ft | 359 kts | 347° |
| 2026-05-05 10:38 | 37.84251 | 30.73606 | 21809 ft | 374 kts | 316° |
| 2026-05-05 10:38 | 37.92860 | 30.66525 | 24481 ft | 383 kts | 347° |
| 2026-05-05 10:38 | 38.03721 | 30.65080 | 26429 ft | 401 kts | 356° |
| 2026-05-05 10:38 | 38.15029 | 30.64688 | 28427 ft | 412 kts | 355° |
| 2026-05-05 10:39 | 38.26843 | 30.64000 | 29502 ft | 437 kts | 355° |
| 2026-05-05 10:39 | 38.38998 | 30.63270 | 31141 ft | 442 kts | 355° |
| 2026-05-05 10:39 | 38.51408 | 30.62527 | 32540 ft | 446 kts | 355° |
| 2026-05-05 10:39 | 38.63738 | 30.62352 | 34457 ft | 440 kts | 5° |
| 2026-05-05 10:40 | 38.74682 | 30.68790 | 35810 ft | 459 kts | 38° |
| 2026-05-05 10:40 | 38.81173 | 30.83210 | 36895 ft | 480 kts | 65° |
| 2026-05-05 10:40 | 38.86798 | 30.98702 | 38061 ft | 479 kts | 60° |
| 2026-05-05 10:40 | 38.92778 | 31.14071 | 39036 ft | 482 kts | 60° |
| 2026-05-05 10:41 | 38.98742 | 31.29461 | 39980 ft | 482 kts | 60° |
| 2026-05-05 10:41 | 39.04702 | 31.44943 | 40018 ft | 482 kts | 61° |
| 2026-05-05 10:41 | 39.16524 | 31.75887 | 39997 ft | 480 kts | 61° |
| 2026-05-05 10:42 | 39.34112 | 32.22515 | 39983 ft | 483 kts | 62° |
| 2026-05-05 10:42 | 39.41496 | 32.36660 | 39978 ft | 473 kts | 36° |
| 2026-05-05 10:43 | 39.52879 | 32.45009 | 39974 ft | 471 kts | 24° |
| 2026-05-05 10:43 | 39.76258 | 32.60394 | 39967 ft | 471 kts | 25° |
| 2026-05-05 10:44 | 39.99637 | 32.76030 | 39961 ft | 473 kts | 25° |
| 2026-05-05 10:44 | 40.10084 | 32.86289 | 39969 ft | 477 kts | 48° |
| 2026-05-05 10:44 | 40.18180 | 33.00035 | 39969 ft | 478 kts | 51° |
| 2026-05-05 10:44 | 40.25523 | 33.14516 | 39966 ft | 480 kts | 63° |
| 2026-05-05 10:45 | 40.31021 | 33.30481 | 39960 ft | 481 kts | 65° |
| 2026-05-05 10:45 | 40.41809 | 33.62616 | 39959 ft | 482 kts | 65° |
| 2026-05-05 10:46 | 40.50686 | 33.95579 | 39959 ft | 484 kts | 71° |
| 2026-05-05 10:46 | 40.60848 | 34.28356 | 39957 ft | 484 kts | 68° |
| 2026-05-05 10:47 | 40.70866 | 34.61339 | 39955 ft | 486 kts | 68° |
| 2026-05-05 10:47 | 40.80721 | 34.94507 | 39953 ft | 485 kts | 69° |
| 2026-05-05 10:48 | 40.90418 | 35.27816 | 39967 ft | 485 kts | 69° |
| 2026-05-05 10:48 | 41.00028 | 35.61209 | 39965 ft | 486 kts | 69° |
| 2026-05-05 10:49 | 41.09776 | 35.94631 | 39984 ft | 486 kts | 69° |
| 2026-05-05 10:49 | 41.19150 | 36.28142 | 40017 ft | 488 kts | 70° |
| 2026-05-05 10:50 | 41.32008 | 36.58997 | 40035 ft | 486 kts | 33° |
| 2026-05-05 10:50 | 41.55444 | 36.77195 | 40016 ft | 488 kts | 30° |
| 2026-05-05 10:51 | 41.78910 | 36.95503 | 40015 ft | 487 kts | 31° |
| 2026-05-05 10:51 | 42.02331 | 37.13904 | 40016 ft | 488 kts | 31° |
| 2026-05-05 10:51 | 42.14004 | 37.23110 | 39398 ft | 485 kts | 31° |
| 2026-05-05 10:52 | 42.25651 | 37.32342 | 38479 ft | 485 kts | 31° |
| 2026-05-05 10:52 | 42.37362 | 37.41666 | 37891 ft | 492 kts | 31° |
| 2026-05-05 10:52 | 42.49098 | 37.51047 | 35256 ft | 487 kts | 32° |
| 2026-05-05 10:52 | 42.60612 | 37.60293 | 32574 ft | 474 kts | 32° |
| 2026-05-05 10:53 | 42.71724 | 37.69375 | 29854 ft | 459 kts | 34° |
| 2026-05-05 10:53 | 42.82070 | 37.79086 | 26872 ft | 446 kts | 36° |
| 2026-05-05 10:53 | 42.92151 | 37.88467 | 24263 ft | 430 kts | 36° |
| 2026-05-05 10:53 | 43.01721 | 37.97682 | 22620 ft | 415 kts | 46° |
| 2026-05-05 10:54 | 43.06912 | 38.11219 | 20993 ft | 395 kts | 70° |
| 2026-05-05 10:54 | 43.09161 | 38.25592 | 19064 ft | 388 kts | 86° |
| 2026-05-05 10:54 | 43.09993 | 38.40145 | 17428 ft | 380 kts | 86° |
| 2026-05-05 10:54 | 43.10808 | 38.54447 | 15869 ft | 374 kts | 86° |
| 2026-05-05 10:55 | 43.11593 | 38.68493 | 14315 ft | 366 kts | 87° |
| 2026-05-05 10:55 | 43.12348 | 38.82291 | 12778 ft | 360 kts | 87° |
| 2026-05-05 10:55 | 43.13070 | 38.95822 | 11306 ft | 354 kts | 87° |
| 2026-05-05 10:55 | 43.13730 | 39.08386 | 10504 ft | 307 kts | 88° |
| 2026-05-05 10:56 | 43.14297 | 39.19493 | 9403 ft | 286 kts | 87° |
| 2026-05-05 10:56 | 43.14950 | 39.30282 | 7834 ft | 283 kts | 78° |
| 2026-05-05 10:56 | 43.16851 | 39.40593 | 6380 ft | 275 kts | 75° |
| 2026-05-05 10:56 | 43.18724 | 39.50638 | 5235 ft | 269 kts | 73° |
| 2026-05-05 10:57 | 43.19783 | 39.56355 | 4638 ft | 266 kts | 73° |
| 2026-05-05 10:57 | 43.20236 | 39.58800 | 4408 ft | 261 kts | 74° |
| 2026-05-05 10:57 | 43.20671 | 39.61167 | 4296 ft | 252 kts | 73° |
| 2026-05-05 10:57 | 43.21089 | 39.63438 | 4006 ft | 248 kts | 74° |
| 2026-05-05 10:58 | 43.21511 | 39.65723 | 3697 ft | 246 kts | 75° |
| 2026-05-05 10:58 | 43.21926 | 39.67984 | 3611 ft | 245 kts | 74° |
| 2026-05-05 10:58 | 43.22358 | 39.70324 | 3609 ft | 257 kts | 73° |
| 2026-05-05 10:58 | 43.22794 | 39.72697 | 3605 ft | 256 kts | 74° |
| 2026-05-05 10:59 | 43.23227 | 39.75057 | 3602 ft | 254 kts | 75° |
| 2026-05-05 10:59 | 43.23662 | 39.77401 | 3601 ft | 253 kts | 73° |
| 2026-05-05 10:59 | 43.24374 | 39.79590 | 3600 ft | 251 kts | 53° |
| 2026-05-05 10:59 | 43.25640 | 39.81172 | 3524 ft | 242 kts | 31° |
| 2026-05-05 11:00 | 43.27075 | 39.82293 | 3384 ft | 232 kts | 27° |
| 2026-05-05 11:00 | 43.28492 | 39.83287 | 3168 ft | 227 kts | 25° |
| 2026-05-05 11:00 | 43.29894 | 39.84299 | 2816 ft | 226 kts | 26° |
| 2026-05-05 11:00 | 43.31237 | 39.85315 | 2503 ft | 214 kts | 26° |
| 2026-05-05 11:01 | 43.32505 | 39.86260 | 2235 ft | 201 kts | 26° |
| 2026-05-05 11:01 | 43.33704 | 39.87154 | 1983 ft | 191 kts | 26° |
| 2026-05-05 11:01 | 43.34841 | 39.88006 | 1747 ft | 181 kts | 27° |
| 2026-05-05 11:01 | 43.35921 | 39.88816 | 1523 ft | 173 kts | 27° |
| 2026-05-05 11:02 | 43.36946 | 39.89585 | 1320 ft | 164 kts | 27° |
| 2026-05-05 11:02 | 43.37936 | 39.90328 | 1132 ft | 162 kts | 27° |
| 2026-05-05 11:02 | 43.38909 | 39.91060 | 947 ft | 155 kts | 26° |
| 2026-05-05 11:02 | 43.39812 | 39.91738 | 750 ft | 147 kts | 24° |
| 2026-05-05 11:03 | 43.40700 | 39.92404 | 564 ft | 142 kts | 26° |
| 2026-05-05 11:03 | 43.41444 | 39.92965 | 405 ft | 131 kts | 25° |
| 2026-05-05 11:05 | 43.41896 | 39.93304 | 312 ft | 128 kts | 26° |
| 2026-05-05 11:05 | 43.42677 | 39.93890 | 150 ft | 128 kts | 25° |
| 2026-05-05 11:05 | 43.43408 | 39.94441 | 163 ft | 122 kts | 25° |
| 2026-05-05 11:05 | 43.44175 | 39.95010 | 91 ft | 115 kts | 25° |
| 2026-05-05 11:06 | 43.44712 | 39.95410 | 86 ft | 63 kts | 31° |
| 2026-05-05 11:06 | 43.44933 | 39.95578 | 81 ft | 7 kts | 7° |
| 2026-05-05 11:06 | 43.44984 | 39.95561 | 84 ft | 9 kts | 338° |
| 2026-05-05 11:06 | 43.45042 | 39.95514 | 83 ft | 10 kts | 319° |
| 2026-05-05 11:07 | 43.45052 | 39.95445 | 83 ft | 5 kts | 244° |
| 2026-05-05 11:07 | 43.45031 | 39.95385 | 85 ft | 9 kts | 244° |
| 2026-05-05 11:07 | 43.45000 | 39.95295 | 70 ft | 12 kts | 245° |
| 2026-05-05 11:07 | 43.44958 | 39.95175 | 68 ft | 16 kts | 244° |
| 2026-05-05 11:08 | 43.44905 | 39.95024 | 65 ft | 19 kts | 243° |
| 2026-05-05 11:08 | 43.44841 | 39.94846 | 67 ft | 22 kts | 244° |
| 2026-05-05 11:08 | 43.44773 | 39.94645 | 65 ft | 24 kts | 245° |
| 2026-05-05 11:08 | 43.44700 | 39.94423 | 63 ft | 27 kts | 245° |
| 2026-05-05 11:09 | 43.44616 | 39.94187 | 59 ft | 28 kts | 244° |
| 2026-05-05 11:09 | 43.44533 | 39.93944 | 57 ft | 19 kts | 245° |
| 2026-05-05 11:09 | 43.44473 | 39.93765 | 56 ft | 22 kts | 245° |